Downstream station:
SHEF ID: NFSM7 N Fork Spring River nr Purcell, MO
STATION TYPE:
STAGE RIV-FLOW
ft cfs
Ccp-Rev Ccp-Rev
(US/Central)
03/26 00:00 5.25 598
03/26 01:00 5.20 579
03/26 02:00 5.17 568
03/26 03:00 5.14 557
03/26 04:00 5.10 543
03/26 05:00 5.07 532
03/26 06:00 5.04 521
03/26 07:00 5.00 507
03/26 08:00 4.97 497
03/26 09:00 4.95 490
03/26 10:00 4.93 483
03/26 11:00 4.89 470
03/26 12:00 4.87 463
03/26 13:00 4.83 450
03/26 14:00 4.82 446
03/26 15:00 4.79 437
03/26 16:00 4.77 430
03/26 17:00 4.75 424
03/26 18:00 4.72 414
03/26 19:00 4.70 408
03/26 20:00 4.67 399
03/26 21:00 4.65 393
03/26 22:00 4.63 386
03/26 23:00 4.62 383